Time;durP1;ratioP1;P1;durP2;ratioP2;P2;SDS_P1;SDS_P2;PMS_P1;PMS_P2;Temp;Humidity;BMP_temperature;BMP_pressure;BME280_temperature;BME280_humidity;BME280_pressure;Samples;Min_cycle;Max_cycle;Signal;HPM_P1;HPM_P2
2021/09/10 00:04:15;;;;;;;23.15;9.40;;;;;;;16.10;51.00;101276.70;1791950;80;38636;-61
2021/09/10 00:09:33;;;;;;;21.93;9.48;;;;;;;16.04;51.57;101281.06;1776988;80;21036;-61
2021/09/10 00:14:29;;;;;;;20.12;9.15;;;;;;;15.94;52.00;101271.18;1792471;78;21723;-61
2021/09/10 00:16:56;;;;;;;24.63;8.95;;;;;;;15.94;52.13;101276.59;1790421;79;21042;-61
2021/09/10 00:19:23;;;;;;;20.80;8.38;;;;;;;15.93;51.98;101270.78;1807238;78;21036;-56
2021/09/10 00:21:50;;;;;;;23.35;9.05;;;;;;;15.92;52.16;101266.33;1808758;79;21524;-56
2021/09/10 00:24:17;;;;;;;27.93;9.63;;;;;;;15.89;52.41;101269.19;1808523;78;21480;-57
2021/09/10 00:26:45;;;;;;;25.97;9.63;;;;;;;15.85;52.30;101275.67;1808444;78;21803;-57
2021/09/10 00:29:17;;;;;;;27.13;9.38;;;;;;;15.84;52.37;101275.27;1776589;80;21036;-56
2021/09/10 00:31:50;;;;;;;25.72;9.43;;;;;;;15.82;52.56;101271.77;1789629;79;21528;-56
2021/09/10 00:34:25;;;;;;;25.62;9.15;;;;;;;15.79;52.75;101269.19;1808842;79;21068;-56
2021/09/10 00:36:52;;;;;;;20.25;8.00;;;;;;;15.76;53.38;101268.88;1807091;79;21060;-56
2021/09/10 00:42:10;;;;;;;26.85;9.13;;;;;;;15.67;54.20;101259.38;1803018;79;21023;-57
2021/09/10 00:44:36;;;;;;;18.12;8.08;;;;;;;15.62;54.30;101261.45;1798452;79;20894;-57
2021/09/10 00:47:04;;;;;;;29.35;8.70;;;;;;;15.59;54.46;101259.75;1774902;80;21052;-57
2021/09/10 00:49:32;;;;;;;27.22;8.38;;;;;;;15.56;54.73;101255.84;1775253;79;20969;-63
2021/09/10 00:54:46;;;;;;;20.02;8.30;;;;;;;15.42;55.68;101261.91;1796123;79;21001;-55
2021/09/10 00:57:20;;;;;;;27.17;8.58;;;;;;;15.37;55.93;101259.91;1775722;80;21076;-55
2021/09/10 00:59:46;;;;;;;22.25;7.95;;;;;;;15.35;56.19;101260.43;1774775;79;21056;-56
2021/09/10 01:05:06;;;;;;;25.05;8.55;;;;;;;15.29;56.29;101258.02;1776789;79;20968;-56
2021/09/10 01:07:39;;;;;;;20.97;8.60;;;;;;;15.30;56.43;101259.32;1793279;78;20925;-57
2021/09/10 01:10:23;;;;;;;25.35;9.20;;;;;;;15.30;56.47;101253.02;1788548;79;21124;-56
2021/09/10 01:15:41;;;;;;;23.77;9.15;;;;;;;15.30;56.67;101248.97;1759692;79;21492;-56
2021/09/10 01:24:38;;;;;;;28.27;9.48;;;;;;;15.13;57.12;101254.68;1806708;78;21146;-61
2021/09/10 01:27:56;;;;;;;32.45;9.13;;;;;;;15.08;57.28;101252.67;1774445;80;21146;-61
2021/09/10 01:30:40;;;;;;;27.27;9.60;;;;;;;15.02;57.58;101248.91;1774444;80;21107;-62
2021/09/10 01:33:08;;;;;;;30.30;9.50;;;;;;;14.95;58.13;101244.75;1786081;79;21529;-61
2021/09/10 01:35:36;;;;;;;28.35;9.63;;;;;;;14.89;58.46;101244.05;1808674;79;21087;-62
2021/09/10 01:38:04;;;;;;;25.37;9.25;;;;;;;14.83;58.90;101243.48;1809392;79;21516;-62
2021/09/10 01:40:31;;;;;;;33.02;8.88;;;;;;;14.78;59.08;101242.78;1807360;79;21040;-61
2021/09/10 01:45:37;;;;;;;29.65;9.55;;;;;;;14.70;59.53;101239.05;1789122;79;21440;-63
2021/09/10 01:50:50;;;;;;;29.48;9.93;;;;;;;14.69;59.83;101242.69;1792699;80;21027;-62
2021/09/10 01:56:09;;;;;;;40.20;10.98;;;;;;;14.72;60.28;101242.12;1792907;79;22146;-57
2021/09/10 01:58:36;;;;;;;23.32;10.32;;;;;;;14.72;60.43;101242.12;1792523;79;21467;-57
2021/09/10 02:01:03;;;;;;;37.03;9.83;;;;;;;14.72;60.74;101238.56;1792336;78;21380;-57
2021/09/10 02:03:30;;;;;;;21.12;8.93;;;;;;;14.70;61.05;101233.65;1784166;79;21095;-55
2021/09/10 02:05:57;;;;;;;26.05;10.20;;;;;;;14.64;61.36;101235.28;1774986;80;21087;-56
2021/09/10 02:08:24;;;;;;;25.70;9.83;;;;;;;14.57;61.66;101238.26;1774997;80;21556;-55
2021/09/10 02:10:52;;;;;;;28.83;9.65;;;;;;;14.55;61.89;101236.10;1796280;79;22099;-55
2021/09/10 02:18:40;;;;;;;31.57;10.23;;;;;;;14.53;61.96;101232.59;1792516;79;21084;-55
2021/09/10 02:21:07;;;;;;;32.13;11.95;;;;;;;14.49;61.99;101236.38;1792338;80;21690;-55
2021/09/10 02:26:13;;;;;;;29.05;11.10;;;;;;;14.41;62.32;101234.02;1775102;80;21430;-55
2021/09/10 02:28:40;;;;;;;37.40;11.18;;;;;;;14.37;62.29;101232.85;1774706;80;21044;-57
2021/09/10 02:42:02;;;;;;;29.55;9.70;;;;;;;14.20;62.01;101241.19;1808758;78;21040;-62
2021/09/10 02:50:27;;;;;;;26.10;9.95;;;;;;;14.02;62.17;101245.06;1774775;80;21228;-56
2021/09/10 02:52:54;;;;;;;26.65;10.78;;;;;;;13.97;62.00;101248.42;1782420;79;21294;-56
2021/09/10 02:55:22;;;;;;;32.00;9.85;;;;;;;13.95;61.94;101250.80;1808884;79;21169;-57
2021/09/10 03:03:02;;;;;;;27.25;10.40;;;;;;;13.86;61.69;101252.05;1795571;79;21124;-61
2021/09/10 03:08:01;;;;;;;36.70;10.05;;;;;;;13.84;61.63;101260.19;1776396;80;21068;-61
2021/09/10 03:13:32;;;;;;;39.10;10.53;;;;;;;13.80;61.48;101251.82;1776483;79;21095;-60
2021/09/10 03:15:59;;;;;;;30.95;10.38;;;;;;;13.81;61.65;101259.42;1774889;80;21132;-62
2021/09/10 03:18:28;;;;;;;22.07;9.48;;;;;;;13.81;61.74;101259.42;1774848;80;21402;-61
2021/09/10 03:20:56;;;;;;;32.15;9.30;;;;;;;13.81;61.48;101261.66;1775297;79;21088;-61
2021/09/10 03:23:24;;;;;;;33.70;9.95;;;;;;;13.79;61.52;101261.30;1782975;79;21071;-62
2021/09/10 03:26:00;;;;;;;25.52;9.38;;;;;;;13.75;61.60;101260.08;1792787;78;21098;-62
2021/09/10 03:28:27;;;;;;;27.35;8.78;;;;;;;13.78;61.80;101259.55;1792946;80;21734;-62
2021/09/10 03:31:00;;;;;;;26.82;9.28;;;;;;;13.73;61.83;101259.27;1820612;77;21118;-62
2021/09/10 03:33:26;;;;;;;22.75;8.98;;;;;;;13.71;61.84;101257.59;1807058;77;21075;-61
2021/09/10 03:36:15;;;;;;;24.20;8.68;;;;;;;13.67;61.90;101255.48;1823425;78;21484;-60
2021/09/10 03:38:42;;;;;;;30.70;8.73;;;;;;;13.69;61.66;101259.45;1823613;78;21027;-60
2021/09/10 03:41:27;;;;;;;34.35;9.88;;;;;;;13.69;61.55;101256.30;1823354;78;21024;-61
2021/09/10 03:43:54;;;;;;;;;;;;;;;13.69;61.35;101253.60;1804257;77;21484;-62
2021/09/10 03:46:26;;;;;;;39.92;9.40;;;;;;;13.67;61.39;101247.40;1788852;80;20155;-62
2021/09/10 03:49:08;;;;;;;32.70;8.90;;;;;;;13.67;61.23;101251.89;1789144;80;21022;-62
2021/09/10 03:51:35;;;;;;;27.02;8.70;;;;;;;13.68;61.05;101251.84;1788914;80;21512;-62
2021/09/10 04:02:07;;;;;;;30.12;11.35;;;;;;;13.72;61.03;101248.08;1790113;80;21110;-56
2021/09/10 04:04:34;;;;;;;28.98;10.23;;;;;;;13.77;61.04;101252.41;1802384;78;21043;-57
2021/09/10 04:09:43;;;;;;;34.20;10.00;;;;;;;13.77;61.04;101253.75;1822823;78;20991;-55
2021/09/10 04:12:13;;;;;;;36.08;11.50;;;;;;;13.80;61.05;101247.78;1800316;78;21112;-62
2021/09/10 04:17:40;;;;;;;24.35;9.90;;;;;;;13.97;60.62;101247.56;1805892;79;21016;-61
2021/09/10 04:22:59;;;;;;;23.75;9.75;;;;;;;14.17;60.08;101249.41;1790258;80;21023;-61
2021/09/10 04:25:28;;;;;;;27.67;9.13;;;;;;;14.29;59.87;101247.56;1790198;80;21083;-61
2021/09/10 04:27:55;;;;;;;23.80;9.30;;;;;;;14.40;59.50;101244.86;1790386;80;21472;-61
2021/09/10 04:30:41;;;;;;;33.42;10.32;;;;;;;14.51;59.24;101252.48;1815401;78;21060;-61
2021/09/10 04:36:11;;;;;;;26.02;10.93;;;;;;;14.77;58.53;101252.72;1822408;78;20440;-61
2021/09/10 04:38:59;;;;;;;22.70;11.15;;;;;;;14.86;58.15;101248.25;1822575;78;21440;-61
2021/09/10 04:41:25;;;;;;;26.77;11.28;;;;;;;14.96;58.10;101243.80;1807651;78;21075;-62
2021/09/10 04:43:54;;;;;;;32.20;13.72;;;;;;;15.10;57.70;101244.02;1823035;77;21023;-61
2021/09/10 04:46:21;;;;;;;24.02;11.28;;;;;;;15.24;57.44;101239.33;1822896;78;21846;-61
2021/09/10 04:51:19;;;;;;;28.80;11.43;;;;;;;15.43;56.64;101238.00;1803859;77;21103;-62
2021/09/10 05:04:30;;;;;;;28.65;9.75;;;;;;;15.98;54.50;101230.86;1818617;78;21063;-61
2021/09/10 05:06:57;;;;;;;27.13;10.70;;;;;;;16.17;53.98;101229.93;1822917;77;21071;-56
2021/09/10 05:09:51;;;;;;;19.60;8.93;;;;;;;16.33;54.03;101225.48;1822863;77;21094;-58
2021/09/10 05:12:20;;;;;;;28.27;9.35;;;;;;;16.51;52.93;101232.72;1820797;78;21066;-55
2021/09/10 05:15:02;;;;;;;22.50;8.40;;;;;;;16.61;52.54;101226.74;1809742;78;20976;-61
2021/09/10 05:17:42;;;;;;;20.82;8.55;;;;;;;16.81;52.27;101228.87;1790416;79;21019;-61
2021/09/10 05:20:12;;;;;;;19.45;8.93;;;;;;;17.06;51.88;101226.20;1789633;78;21089;-61
2021/09/10 05:23:24;;;;;;;20.25;9.50;;;;;;;17.32;50.95;101227.48;1808256;78;21557;-61
2021/09/10 05:25:52;;;;;;;23.40;10.38;;;;;;;17.53;50.40;101229.94;1820103;78;21105;-61
2021/09/10 05:28:19;;;;;;;32.90;11.15;;;;;;;17.78;50.01;101227.64;1807183;78;20928;-61
2021/09/10 05:30:46;;;;;;;24.85;11.73;;;;;;;17.94;49.39;101228.50;1794661;78;20949;-62
2021/09/10 05:33:13;;;;;;;29.42;12.70;;;;;;;18.13;48.85;101229.70;1774090;79;21064;-61
2021/09/10 05:35:57;;;;;;;33.48;12.20;;;;;;;18.30;48.58;101223.25;1781978;79;21571;-61
2021/09/10 05:38:33;;;;;;;27.30;13.05;;;;;;;18.54;47.84;101228.16;1762137;79;22373;-61
2021/09/10 05:41:00;;;;;;;26.00;11.33;;;;;;;18.76;47.55;101234.98;1755726;79;21504;-61
2021/09/10 05:43:45;;;;;;;33.53;9.70;;;;;;;18.97;47.33;101239.55;1757027;80;21107;-62
2021/09/10 05:46:26;;;;;;;36.55;9.18;;;;;;;19.18;46.62;101240.08;1801670;79;21025;-62
2021/09/10 05:53:57;;;;;;;36.00;8.88;;;;;;;19.75;45.62;101246.38;1743034;81;21576;-61
2021/09/10 05:56:24;;;;;;;26.23;9.23;;;;;;;19.97;44.72;101238.68;1750699;80;21326;-61
2021/09/10 05:58:52;;;;;;;27.27;10.08;;;;;;;20.12;44.57;101242.21;1763559;80;21012;-56
2021/09/10 06:04:02;;;;;;;25.43;9.20;;;;;;;20.60;44.14;101238.44;1742042;81;21449;-56
2021/09/10 06:09:12;;;;;;;37.93;9.38;;;;;;;21.37;42.50;101251.70;1749822;79;20980;-59
2021/09/10 06:14:23;;;;;;;24.67;8.30;;;;;;;22.69;40.49;101249.19;1768455;79;21036;-62
2021/09/10 06:16:52;;;;;;;26.05;8.68;;;;;;;23.48;39.32;101255.70;1781804;78;21035;-62
2021/09/10 06:22:10;;;;;;;22.22;7.58;;;;;;;24.09;38.37;101251.62;1789935;79;21092;-62
2021/09/10 06:29:44;;;;;;;18.65;7.20;;;;;;;24.38;38.93;101257.84;1789197;79;21103;-60
2021/09/10 06:32:11;;;;;;;32.53;6.95;;;;;;;24.48;39.54;101261.54;1789392;79;21646;-64
2021/09/10 06:37:41;;;;;;;19.37;5.83;;;;;;;25.38;39.12;101261.92;1785571;78;21540;-56
2021/09/10 06:40:10;;;;;;;12.95;6.33;;;;;;;25.77;38.11;101267.21;1792063;78;21134;-57
2021/09/10 06:42:37;;;;;;;14.25;6.50;;;;;;;25.71;37.94;101274.13;1792116;78;21152;-57
2021/09/10 06:45:05;;;;;;;14.40;6.28;;;;;;;25.49;38.10;101268.34;1786106;79;21044;-58
2021/09/10 06:52:51;;;;;;;11.20;5.78;;;;;;;24.87;37.95;101263.70;1785474;79;21131;-57
2021/09/10 06:55:19;;;;;;;19.20;5.65;;;;;;;24.63;37.78;101268.05;1786685;79;21466;-57
2021/09/10 06:57:46;;;;;;;18.07;5.80;;;;;;;24.40;37.89;101264.05;1787242;79;21018;-57
2021/09/10 07:00:15;;;;;;;15.08;6.03;;;;;;;24.24;38.73;101257.66;1789959;79;21043;-56
2021/09/10 07:02:42;;;;;;;17.32;6.03;;;;;;;24.27;39.51;101259.64;1784546;78;21549;-57
2021/09/10 07:05:10;;;;;;;13.72;6.05;;;;;;;24.30;39.70;101260.75;1791283;78;21115;-57
2021/09/10 07:07:37;;;;;;;16.25;5.90;;;;;;;24.29;40.11;101263.12;1789000;79;21090;-58
2021/09/10 07:10:06;;;;;;;19.07;6.62;;;;;;;24.24;40.18;101264.02;1792306;78;21449;-57
2021/09/10 07:12:33;;;;;;;15.72;6.03;;;;;;;24.22;40.52;101255.06;1790318;79;21631;-57
2021/09/10 07:15:14;;;;;;;14.65;5.75;;;;;;;24.22;40.81;101255.06;1788026;79;21053;-56
2021/09/10 07:17:41;;;;;;;18.50;5.95;;;;;;;24.24;40.46;101258.54;1791928;79;21385;-57
2021/09/10 07:20:10;;;;;;;54.53;36.38;;;;;;;24.25;40.22;101259.39;1789641;79;21122;-56
2021/09/10 07:22:38;;;;;;;11.78;6.22;;;;;;;24.22;40.78;101257.81;1793133;79;21013;-58
2021/09/10 07:25:06;;;;;;;20.23;6.85;;;;;;;24.20;40.92;101257.04;1803141;79;21117;-56
2021/09/10 07:27:35;;;;;;;18.87;7.90;;;;;;;24.20;41.53;101269.88;1790833;78;21655;-56
2021/09/10 07:30:04;;;;;;;20.27;6.47;;;;;;;24.16;41.45;101264.67;1794197;79;21529;-56
2021/09/10 07:32:31;;;;;;;27.02;6.75;;;;;;;24.16;40.82;101267.89;1784552;79;21514;-57
2021/09/10 07:34:57;;;;;;;23.07;6.92;;;;;;;24.10;41.31;101256.09;1786214;79;21430;-56
2021/09/10 07:37:30;;;;;;;35.80;8.13;;;;;;;24.02;41.53;101271.32;1791659;78;21490;-58
2021/09/10 07:39:57;;;;;;;22.17;8.35;;;;;;;23.99;41.67;101271.55;1789395;79;21489;-56
2021/09/10 07:42:40;;;;;;;21.00;7.30;;;;;;;23.96;41.35;101262.72;1781639;78;21064;-58
2021/09/10 07:47:45;;;;;;;16.60;7.58;;;;;;;23.94;42.25;101262.83;1792824;79;21717;-64
2021/09/10 07:50:14;;;;;;;19.37;6.90;;;;;;;23.95;41.80;101259.09;1792871;79;21036;-61
2021/09/10 07:52:41;;;;;;;20.02;7.35;;;;;;;24.01;41.63;101258.62;1794139;78;21072;-63
2021/09/10 07:55:09;;;;;;;20.70;7.37;;;;;;;24.02;41.47;101259.00;1792420;79;21143;-64
2021/09/10 07:57:37;;;;;;;33.33;7.37;;;;;;;24.02;41.87;101264.95;1783382;78;21105;-65
2021/09/10 08:00:05;;;;;;;44.27;8.25;;;;;;;23.94;41.77;101255.98;1800947;78;20942;-59
2021/09/10 08:02:37;;;;;;;50.67;8.85;;;;;;;23.97;42.18;101252.98;1748495;81;21457;-61
2021/09/10 08:05:06;;;;;;;47.75;8.70;;;;;;;24.01;42.51;101258.62;1738261;81;21489;-63
2021/09/10 08:07:33;;;;;;;36.90;9.38;;;;;;;24.04;42.67;101243.78;1751179;79;21468;-60
2021/09/10 08:10:01;;;;;;;41.23;8.88;;;;;;;24.08;42.44;101242.52;1756164;80;20999;-60
2021/09/10 08:12:28;;;;;;;42.40;8.20;;;;;;;24.10;42.33;101241.03;1757032;79;21549;-62
2021/09/10 08:14:56;;;;;;;37.05;8.10;;;;;;;24.16;42.50;101233.66;1758186;80;21048;-62
2021/09/10 08:17:28;;;;;;;46.95;8.98;;;;;;;24.20;42.52;101232.91;1793440;78;21074;-58
2021/09/10 08:20:06;;;;;;;34.38;8.20;;;;;;;24.23;42.65;101239.00;1796455;78;21106;-64
2021/09/10 08:22:35;;;;;;;26.30;9.08;;;;;;;24.19;41.29;101241.61;1789086;78;21078;-58
2021/09/10 08:25:04;;;;;;;51.50;9.58;;;;;;;24.15;43.18;101237.39;1788440;78;21452;-65
2021/09/10 08:27:33;;;;;;;29.48;9.33;;;;;;;24.18;44.33;101243.98;1788558;78;21565;-63
2021/09/10 08:30:00;;;;;;;49.27;9.10;;;;;;;24.23;45.15;101234.89;1793250;78;21064;-61
2021/09/10 08:34:56;;;;;;;18.98;8.75;;;;;;;24.35;45.90;101241.18;1762108;81;21139;-58
2021/09/10 08:37:26;;;;;;;14.13;8.35;;;;;;;24.35;46.04;101237.56;1802435;77;21253;-59
2021/09/10 08:39:55;;;;;;;24.63;7.80;;;;;;;24.34;46.84;101239.93;1795796;79;21083;-58
2021/09/10 08:42:45;;;;;;;17.65;7.05;;;;;;;24.32;46.98;101236.83;1801551;77;21063;-58
2021/09/10 08:45:17;;;;;;;22.60;6.90;;;;;;;24.37;46.89;101236.44;1793880;78;21098;-59
2021/09/10 08:47:53;;;;;;;33.73;7.05;;;;;;;24.41;46.64;101231.53;1802601;77;21034;-57
2021/09/10 08:52:51;;;;;;;22.65;7.12;;;;;;;24.41;47.96;101229.68;1796650;77;21126;-57
2021/09/10 08:55:19;;;;;;;19.37;6.75;;;;;;;24.26;48.85;101220.92;1783913;78;21095;-57
2021/09/10 08:57:48;;;;;;;23.95;6.15;;;;;;;24.17;50.27;101221.70;1781969;78;21055;-58
2021/09/10 09:00:16;;;;;;;16.70;6.33;;;;;;;24.16;51.20;101225.44;1780443;78;21500;-57
2021/09/10 09:03:34;;;;;;;16.82;6.17;;;;;;;24.13;50.94;101229.81;1757126;81;20944;-57
2021/09/10 09:05:53;;;;;;;25.45;6.35;;;;;;;24.01;49.95;101218.92;1752935;81;21055;-61
2021/09/10 09:08:20;;;;;;;24.75;6.00;;;;;;;23.88;51.59;101218.17;1762826;79;21099;-58
2021/09/10 09:11:07;;;;;;;17.95;6.03;;;;;;;23.78;50.75;101213.12;1781731;78;21478;-57
2021/09/10 09:13:56;;;;;;;17.35;5.70;;;;;;;23.67;50.18;101216.24;1796553;77;21733;-57
2021/09/10 09:19:05;;;;;;;77.78;50.83;;;;;;;23.59;49.92;101216.87;1794697;79;21394;-57
2021/09/10 09:24:38;;;;;;;21.75;6.20;;;;;;;23.58;50.53;101212.92;1799444;77;21040;-57
2021/09/10 09:34:57;;;;;;;35.68;6.72;;;;;;;23.50;44.73;101214.03;1790632;79;21080;-61
2021/09/10 09:37:25;;;;;;;22.00;6.05;;;;;;;23.41;45.02;101212.92;1741554;79;21054;-60
2021/09/10 09:39:59;;;;;;;35.15;6.33;;;;;;;23.37;44.25;101210.96;1790556;78;21584;-60
2021/09/10 09:42:30;;;;;;;12.55;5.35;;;;;;;23.26;43.94;101202.75;1796322;78;21055;-60
2021/09/10 09:45:28;;;;;;;14.68;5.83;;;;;;;23.20;43.93;101208.70;1787981;79;21110;-61
2021/09/10 09:47:57;;;;;;;23.38;6.15;;;;;;;23.15;44.54;101201.75;1788923;78;21762;-61
2021/09/10 09:50:24;;;;;;;26.27;6.20;;;;;;;23.13;44.34;101207.84;1787069;78;21071;-59
2021/09/10 09:55:48;;;;;;;29.20;6.00;;;;;;;23.23;44.52;101205.72;1791143;78;21597;-58
2021/09/10 09:58:25;;;;;;;24.27;5.28;;;;;;;23.33;44.24;101205.38;1791876;78;21051;-58
2021/09/10 10:00:52;;;;;;;14.47;5.30;;;;;;;23.43;43.06;101210.45;1793881;78;21553;-57
2021/09/10 10:03:22;;;;;;;20.95;6.00;;;;;;;23.52;42.75;101207.94;1794452;78;21524;-60
2021/09/10 10:05:52;;;;;;;9.40;5.20;;;;;;;23.58;43.46;101201.97;1795455;78;21144;-61
2021/09/10 10:08:25;;;;;;;12.65;5.17;;;;;;;23.61;39.66;101205.81;1792779;78;21060;-61
2021/09/10 10:11:13;;;;;;;19.27;9.98;;;;;;;23.58;38.34;101205.56;1793064;78;21263;-62
2021/09/10 10:13:40;;;;;;;13.18;5.12;;;;;;;23.54;37.35;101206.82;1784220;79;20981;-62
2021/09/10 10:16:34;;;;;;;14.00;5.12;;;;;;;23.52;38.00;101202.46;1772644;79;21001;-61
2021/09/10 10:19:06;;;;;;;8.98;4.92;;;;;;;23.56;37.48;101201.23;1789570;78;21469;-61
2021/09/10 10:21:58;;;;;;;13.85;4.35;;;;;;;23.58;36.60;101195.98;1791708;78;21096;-61
2021/09/10 10:25:18;;;;;;;8.53;4.83;;;;;;;23.67;36.01;101188.02;1790285;78;21064;-57
2021/09/10 10:27:46;;;;;;;13.83;5.47;;;;;;;23.73;34.71;101188.34;1793841;78;21112;-56
2021/09/10 10:31:20;;;;;;;11.25;4.87;;;;;;;23.81;35.00;101193.70;1792238;78;21627;-57
2021/09/10 10:33:48;;;;;;;11.12;4.42;;;;;;;23.86;34.59;101188.69;1793505;78;21164;-57
2021/09/10 10:36:51;;;;;;;14.78;4.40;;;;;;;23.95;33.32;101187.89;1801332;77;21064;-62
2021/09/10 10:39:26;;;;;;;11.88;4.62;;;;;;;24.03;32.75;101188.64;1803737;78;21067;-60
2021/09/10 10:41:59;;;;;;;7.30;4.50;;;;;;;24.10;31.99;101175.30;1802552;77;21008;-60
2021/09/10 10:44:39;;;;;;;12.60;4.47;;;;;;;24.14;32.12;101180.88;1802870;77;22287;-58
2021/09/10 10:47:18;;;;;;;8.18;4.33;;;;;;;24.16;31.74;101170.66;1797261;78;21114;-56
2021/09/10 10:55:26;;;;;;;15.72;4.55;;;;;;;24.37;32.10;101163.83;1800600;79;20948;-56
2021/09/10 11:00:36;;;;;;;12.03;4.78;;;;;;;24.46;31.96;101156.16;1794735;77;21665;-62
2021/09/10 11:03:21;;;;;;;8.38;4.83;;;;;;;24.52;31.48;101156.61;1806167;78;21075;-62
2021/09/10 11:05:52;;;;;;;9.08;4.70;;;;;;;24.56;31.60;101151.25;1776874;80;21004;-62
2021/09/10 11:09:14;;;;;;;14.47;5.08;;;;;;;24.56;31.27;101149.88;1777788;80;21032;-58
2021/09/10 11:11:14;;;;;;;9.85;5.10;;;;;;;24.55;32.25;101147.62;1786697;79;21031;-58
2021/09/10 11:13:46;;;;;;;11.05;4.78;;;;;;;24.58;33.55;101140.49;1803271;77;21094;-62
2021/09/10 11:16:28;;;;;;;13.72;5.10;;;;;;;24.56;34.09;101147.98;1805454;78;21075;-62
2021/09/10 11:18:56;;;;;;;11.73;4.90;;;;;;;24.53;34.29;101137.30;1788326;78;21046;-57
2021/09/10 11:21:44;;;;;;;11.08;4.90;;;;;;;24.53;34.54;101135.93;1796143;78;21043;-56
2021/09/10 11:29:40;;;;;;;10.95;5.75;;;;;;;24.56;33.59;101126.06;1794664;79;21075;-57
2021/09/10 11:40:40;;;;;;;9.95;5.00;;;;;;;24.65;31.36;101101.56;1787162;78;21728;-58
2021/09/10 11:43:16;;;;;;;15.55;4.85;;;;;;;24.63;32.10;101102.20;1733505;80;21027;-61
2021/09/10 11:54:19;;;;;;;8.53;4.87;;;;;;;24.80;29.58;101094.74;1768402;79;21167;-58
2021/09/10 11:56:47;;;;;;;11.93;4.53;;;;;;;24.81;29.37;101089.62;1729395;81;21065;-58
2021/09/10 12:01:44;;;;;;;8.15;4.67;;;;;;;24.94;29.95;101084.41;1798152;78;21495;-62
2021/09/10 12:04:33;;;;;;;12.03;4.83;;;;;;;24.97;29.72;101078.64;1765698;79;21634;-59
2021/09/10 12:07:01;;;;;;;12.35;5.10;;;;;;;24.99;29.95;101075.25;1705651;81;21647;-62
2021/09/10 12:09:33;;;;;;;7.92;4.33;;;;;;;25.03;29.79;101073.95;1791983;78;21586;-58
2021/09/10 12:12:05;;;;;;;13.93;5.33;;;;;;;25.06;29.23;101066.80;1796317;79;21543;-61
2021/09/10 12:14:44;;;;;;;11.25;5.03;;;;;;;25.10;28.91;101060.55;1762715;79;21062;-59
2021/09/10 12:22:44;;;;;;;14.38;5.15;;;;;;;25.10;28.86;101054.56;1760707;79;21637;-61
2021/09/10 12:31:33;;;;;;;8.33;4.92;;;;;;;25.22;29.43;101044.82;1756969;79;21058;-60
2021/09/10 12:39:14;;;;;;;13.08;5.70;;;;;;;25.26;30.75;101038.91;1755812;79;21091;-62
2021/09/10 12:41:43;;;;;;;9.00;5.03;;;;;;;25.28;30.81;101037.37;1753169;79;21142;-60
2021/09/10 12:44:11;;;;;;;10.00;5.22;;;;;;;25.28;30.55;101037.37;1753547;80;21103;-62
2021/09/10 12:51:46;;;;;;;14.43;4.80;;;;;;;25.15;29.97;101037.17;1755769;79;21059;-59
2021/09/10 12:54:14;;;;;;;10.50;6.28;;;;;;;25.15;30.62;101027.57;1754787;79;21127;-58
2021/09/10 12:59:11;;;;;;;16.32;5.92;;;;;;;25.22;31.16;101020.13;1756821;81;21104;-61
2021/09/10 13:01:41;;;;;;;17.00;5.58;;;;;;;25.28;31.42;101023.66;1760564;79;21580;-57
2021/09/10 13:04:09;;;;;;;13.05;5.40;;;;;;;25.37;31.33;101017.81;1755613;79;21091;-57
2021/09/10 13:06:37;;;;;;;15.13;5.20;;;;;;;25.38;31.24;101019.06;1751728;81;21433;-57
2021/09/10 13:09:07;;;;;;;14.20;5.47;;;;;;;25.38;30.52;101016.31;1757276;79;21059;-60
2021/09/10 13:11:37;;;;;;;12.10;5.30;;;;;;;25.40;29.52;101014.29;1755264;79;21762;-61
2021/09/10 13:14:05;;;;;;;12.65;4.92;;;;;;;25.42;29.15;101009.52;1778485;79;21028;-62
2021/09/10 13:16:33;;;;;;;12.37;5.33;;;;;;;25.47;29.29;101009.13;1783370;79;21032;-61
2021/09/10 13:19:01;;;;;;;13.03;5.30;;;;;;;25.56;29.44;101006.86;1781382;78;21591;-61
2021/09/10 13:32:20;;;;;;;13.98;5.30;;;;;;;25.86;28.15;101004.95;1753864;80;21549;-61
2021/09/10 13:42:45;;;;;;;16.82;5.33;;;;;;;25.83;27.38;100993.39;1793085;78;21086;-59
2021/09/10 13:45:13;;;;;;;11.08;5.65;;;;;;;25.79;27.02;101004.31;1797635;77;21105;-59
2021/09/10 13:47:41;;;;;;;12.55;5.33;;;;;;;25.74;26.36;100999.26;1800532;78;21052;-61
2021/09/10 13:53:41;;;;;;;14.95;6.62;;;;;;;25.61;25.58;100996.83;1684288;82;21118;-62
2021/09/10 13:56:09;;;;;;;10.25;4.85;;;;;;;25.59;26.13;100997.48;1665077;84;21159;-60
2021/09/10 13:58:37;;;;;;;10.48;5.30;;;;;;;25.60;25.92;100987.71;1757906;78;21080;-59
2021/09/10 14:01:04;;;;;;;10.05;4.97;;;;;;;25.62;25.66;100986.70;1755839;79;21111;-60
2021/09/10 14:06:06;;;;;;;9.03;5.37;;;;;;;25.74;25.43;100984.16;1779651;78;21509;-57
2021/09/10 14:08:33;;;;;;;10.90;5.12;;;;;;;25.76;25.30;100988.99;1810096;77;21048;-59
2021/09/10 14:11:04;;;;;;;9.53;5.40;;;;;;;25.80;25.06;100984.08;1800120;77;21492;-60
2021/09/10 14:13:33;;;;;;;12.53;5.12;;;;;;;25.86;25.07;100983.48;1807178;77;21110;-59
2021/09/10 14:16:12;;;;;;;8.98;5.30;;;;;;;25.95;25.05;100975.70;1804456;77;21058;-57
2021/09/10 14:18:41;;;;;;;11.43;5.70;;;;;;;26.02;24.91;100976.86;1805761;77;21484;-60
2021/09/10 14:21:10;;;;;;;9.58;5.00;;;;;;;26.03;24.79;100973.59;1803473;77;21647;-59
2021/09/10 14:23:47;;;;;;;9.53;5.80;;;;;;;26.09;24.76;100976.25;1796472;77;21146;-60
2021/09/10 14:26:18;;;;;;;10.63;5.58;;;;;;;26.13;24.99;100973.55;1797133;77;21147;-60
2021/09/10 14:28:49;;;;;;;7.47;5.35;;;;;;;26.16;25.15;100970.50;1793390;78;21060;-57
2021/09/10 14:31:17;;;;;;;14.20;5.62;;;;;;;26.15;25.06;100969.65;1796844;78;21085;-62
2021/09/10 14:33:47;;;;;;;11.60;6.00;;;;;;;26.17;25.13;100973.63;1783915;78;20980;-63
2021/09/10 14:36:14;;;;;;;9.90;5.92;;;;;;;26.20;25.15;100977.48;1787623;78;21088;-59
2021/09/10 14:44:02;;;;;;;14.58;5.37;;;;;;;26.23;25.29;100974.42;1786397;78;21100;-59
2021/09/10 14:48:58;;;;;;;18.57;6.05;;;;;;;26.22;25.52;100968.58;1784640;78;21076;-59
2021/09/10 14:53:57;;;;;;;14.90;6.03;;;;;;;26.29;25.62;100968.31;1753422;79;21120;-61
2021/09/10 15:01:54;;;;;;;12.78;5.75;;;;;;;26.20;25.54;100963.74;1750479;79;21102;-59
2021/09/10 15:04:23;;;;;;;18.12;5.42;;;;;;;26.14;25.61;100957.42;1752019;79;21086;-61
2021/09/10 15:06:51;;;;;;;10.68;5.35;;;;;;;26.11;25.64;100959.11;1753938;79;21485;-61
2021/09/10 15:09:24;;;;;;;17.10;5.95;;;;;;;26.15;25.59;100959.16;1794639;78;21682;-60
2021/09/10 15:11:51;;;;;;;14.28;6.00;;;;;;;26.21;25.62;100964.09;1781119;79;21494;-61
2021/09/10 15:14:30;;;;;;;13.85;5.78;;;;;;;26.24;25.65;100956.92;1779150;79;21191;-60
2021/09/10 15:17:07;;;;;;;14.87;6.33;;;;;;;26.25;25.70;100955.91;1783133;79;21000;-61
2021/09/10 15:19:49;;;;;;;17.42;5.67;;;;;;;26.24;25.54;100951.42;1783087;79;21160;-61
2021/09/10 15:22:27;;;;;;;20.97;6.50;;;;;;;26.21;25.41;100946.73;1773554;79;21115;-62
2021/09/10 15:25:02;;;;;;;14.45;6.03;;;;;;;26.16;25.60;100941.19;1792485;78;21031;-59
2021/09/10 15:32:44;;;;;;;;;;;;;;;26.08;25.77;100947.89;1787603;79;22501;-60
2021/09/10 15:35:11;;;;;;;15.10;5.90;;;;;;;26.07;25.73;100946.69;1776639;79;20180;-59
2021/09/10 15:37:38;;;;;;;12.23;6.03;;;;;;;26.05;25.76;100944.61;1763412;79;21036;-60
2021/09/10 15:40:06;;;;;;;14.55;6.17;;;;;;;25.99;25.84;100949.70;1764259;79;21115;-59
2021/09/10 15:42:36;;;;;;;15.03;6.28;;;;;;;25.96;25.94;100942.25;1803632;77;21050;-60
2021/09/10 15:45:15;;;;;;;14.75;7.00;;;;;;;25.99;26.16;100945.58;1803945;77;21988;-58
2021/09/10 15:47:41;;;;;;;19.07;6.90;;;;;;;26.07;26.14;100946.69;1802198;77;21095;-57
2021/09/10 15:50:16;;;;;;;20.95;7.08;;;;;;;26.11;26.15;100945.37;1803914;77;22052;-59
2021/09/10 15:52:41;;;;;;;15.30;7.28;;;;;;;26.11;26.16;100939.88;1804363;77;21106;-59
2021/09/10 15:55:14;;;;;;;18.52;7.83;;;;;;;26.09;26.22;100940.53;1802405;78;21052;-56
2021/09/10 15:57:43;;;;;;;19.02;8.10;;;;;;;26.08;26.46;100942.92;1775638;78;21140;-59